ZBAA/PEK METAR and TAF weather

Enter ICAO airport designator
Station Type Date Time Source
ZBAA METAR 2018/12/19 09:00 UTC NOAA

ZBAA 190900Z 02002MPS CAVOK 04/M12 Q1021 NOSIG


Station Type Date Time Source
ZBAA Decoded METAR 2018/12/19 09:00 UTC NOAA

Beijing, China (ZBAA) 39-56N 116-17E 55M
Dec 19, 2018 - 04:00 AM EST / 2018.12.19 0900 UTC
Wind: from the NNE (020 degrees) at 4 MPH (4 KT):0
Visibility: greater than 7 mile(s):0
Temperature: 39 F (4 C)
Dew Point: 10 F (-12 C)
Relative Humidity: 30%
Pressure (altimeter): 30.15 in. Hg (1021 hPa)
ob: ZBAA 190900Z 02002MPS CAVOK 04/M12 Q1021 NOSIG
cycle: 9

Station Type Date Time Source
ZBAA TAF 2018/12/19 06:03 UTC NOAA

TAF TAF ZBAA 190330Z 1906/2006 17004MPS 7000 NSC TX09/1907Z TNM06/22Z


Example: see airport list